createdAt,value
2022-09-23T00:02:06.544Z,3.47
2022-09-23T00:04:32.955Z,4.70
2022-09-23T00:06:59.191Z,4.13
2022-09-23T00:09:25.523Z,4.63
2022-09-23T00:11:51.785Z,5.07
2022-09-23T00:14:18.217Z,4.65
2022-09-23T00:16:44.536Z,3.95
2022-09-23T00:19:10.814Z,5.25
2022-09-23T00:21:37.182Z,5.18
2022-09-23T00:24:03.539Z,4.50
2022-09-23T00:26:29.776Z,4.68
2022-09-23T00:28:56.074Z,5.80
2022-09-23T00:31:24.042Z,4.95
2022-09-23T00:33:57.735Z,4.82
2022-09-23T00:36:24.220Z,4.13
2022-09-23T00:38:50.540Z,3.53
2022-09-23T00:41:16.982Z,4.60
2022-09-23T00:43:45.419Z,4.88
2022-09-23T00:46:13.612Z,4.28
2022-09-23T00:48:40.994Z,3.75
2022-09-23T00:51:09.007Z,4.70
2022-09-23T00:53:35.655Z,3.78
2022-09-23T00:56:02.825Z,3.90
2022-09-23T00:58:31.164Z,4.43
2022-09-23T01:00:59.818Z,4.28
2022-09-23T01:03:26.242Z,3.55
2022-09-23T01:05:52.765Z,3.53
2022-09-23T01:08:19.964Z,3.85
2022-09-23T01:10:47.379Z,4.38
2022-09-23T01:13:18.729Z,3.25
2022-09-23T01:15:47.876Z,2.97
2022-09-23T01:18:14.101Z,4.00
2022-09-23T01:20:54.802Z,4.30
2022-09-23T01:23:39.705Z,3.00
2022-09-23T01:26:24.883Z,4.43
2022-09-23T01:29:02.367Z,4.82
2022-09-23T01:31:31.646Z,3.20
2022-09-23T01:34:02.988Z,3.63
2022-09-23T01:36:58.746Z,3.30
2022-09-23T01:39:28.130Z,3.28
2022-09-23T01:42:00.332Z,3.35
2022-09-23T01:44:47.134Z,3.75
2022-09-23T01:47:22.770Z,2.55
2022-09-23T01:49:56.099Z,3.70
2022-09-23T01:52:32.812Z,3.25
2022-09-23T01:55:13.046Z,4.43
2022-09-23T01:57:59.784Z,3.35
2022-09-23T02:00:28.217Z,4.43
2022-09-23T02:03:04.901Z,5.05
2022-09-23T02:05:37.325Z,3.75
2022-09-23T02:08:11.376Z,4.53
2022-09-23T02:10:37.615Z,3.88
2022-09-23T02:13:07.083Z,4.05
2022-09-23T02:15:36.029Z,3.50
2022-09-23T02:18:05.233Z,4.32
2022-09-23T02:20:34.337Z,4.00
2022-09-23T02:23:07.603Z,3.90
2022-09-23T02:25:50.063Z,4.00
2022-09-23T02:28:18.941Z,3.42
2022-09-23T02:30:49.414Z,3.05
2022-09-23T02:33:31.495Z,3.25
2022-09-23T02:36:05.552Z,3.45
2022-09-23T02:38:37.530Z,4.35
2022-09-23T02:41:06.373Z,4.25
2022-09-23T02:43:46.126Z,3.53
2022-09-23T02:46:12.612Z,3.75
2022-09-23T02:48:44.392Z,3.22
2022-09-23T02:51:10.771Z,3.33
2022-09-23T02:53:37.232Z,3.30
2022-09-23T02:56:13.260Z,3.97
2022-09-23T02:58:39.665Z,2.97
2022-09-23T03:01:24.371Z,3.35
2022-09-23T03:04:09.517Z,2.88
2022-09-23T03:06:48.856Z,3.60
2022-09-23T03:09:20.078Z,3.58
2022-09-23T03:11:49.851Z,2.90
2022-09-23T03:14:23.357Z,3.08
2022-09-23T03:16:50.276Z,3.83
2022-09-23T03:19:23.747Z,3.35
2022-09-23T03:22:01.096Z,4.72
2022-09-23T03:24:30.538Z,3.17
2022-09-23T03:27:00.203Z,4.03
2022-09-23T03:29:26.875Z,2.65
2022-09-23T03:31:53.857Z,2.90
2022-09-23T03:34:26.017Z,3.03
2022-09-23T03:37:01.452Z,3.83
2022-09-23T03:39:33.923Z,3.35
2022-09-23T03:42:02.314Z,3.00
2022-09-23T03:44:29.133Z,3.63
2022-09-23T03:46:58.938Z,3.15
2022-09-23T03:49:27.510Z,2.78
2022-09-23T03:51:54.317Z,3.33
2022-09-23T03:54:20.725Z,3.70
2022-09-23T03:56:50.320Z,3.67
2022-09-23T03:59:16.631Z,3.03
2022-09-23T04:01:43.577Z,2.80
2022-09-23T04:04:10.322Z,3.30
2022-09-23T04:06:36.600Z,4.63
2022-09-23T04:09:02.995Z,3.40
2022-09-23T04:11:29.453Z,2.53
2022-09-23T04:13:56.360Z,3.30
2022-09-23T04:16:23.020Z,2.88
2022-09-23T04:18:49.531Z,2.67
2022-09-23T04:21:15.756Z,3.15
2022-09-23T04:23:42.036Z,3.80
2022-09-23T04:26:08.548Z,3.15
2022-09-23T04:28:34.802Z,3.35
2022-09-23T04:31:04.922Z,4.45
2022-09-23T04:33:31.565Z,4.63
2022-09-23T04:35:57.900Z,3.53
2022-09-23T04:38:24.198Z,4.97
2022-09-23T04:40:50.564Z,4.30
2022-09-23T04:43:16.966Z,3.70
2022-09-23T04:45:43.681Z,3.05
2022-09-23T04:48:10.776Z,3.88
2022-09-23T04:50:37.646Z,3.75
2022-09-23T04:53:04.598Z,2.92
2022-09-23T04:55:31.062Z,4.38
2022-09-23T04:57:57.736Z,3.83
2022-09-23T05:00:24.322Z,3.42
2022-09-23T05:02:51.230Z,4.72
2022-09-23T05:05:22.315Z,4.20
2022-09-23T05:07:48.910Z,3.08
2022-09-23T05:10:15.788Z,3.63
2022-09-23T05:12:42.319Z,5.75
2022-09-23T05:15:08.796Z,4.43
2022-09-23T05:17:36.809Z,3.03
2022-09-23T05:20:03.339Z,5.35
2022-09-23T05:22:29.957Z,5.43
2022-09-23T05:24:56.210Z,3.72
2022-09-23T05:27:22.543Z,6.28
2022-09-23T05:29:49.454Z,5.65
2022-09-23T05:32:15.746Z,6.35
2022-09-23T05:34:42.061Z,7.53
2022-09-23T05:37:08.599Z,4.25
2022-09-23T05:39:34.837Z,7.95
2022-09-23T05:42:01.160Z,3.72
2022-09-23T05:44:27.403Z,5.03
2022-09-23T05:46:53.739Z,5.03
2022-09-23T05:49:20.112Z,5.13
2022-09-23T05:51:46.491Z,6.43
2022-09-23T05:54:12.833Z,6.38
2022-09-23T05:56:39.283Z,4.85
2022-09-23T05:59:05.951Z,7.15
2022-09-23T06:01:34.223Z,4.50
2022-09-23T06:04:01.807Z,5.40
2022-09-23T06:06:38.461Z,4.70
2022-09-23T06:09:05.508Z,4.40
2022-09-23T06:11:34.924Z,3.42
2022-09-23T06:14:02.519Z,5.97
2022-09-23T06:16:30.399Z,7.22
2022-09-23T06:18:58.134Z,3.92
2022-09-23T06:21:26.222Z,4.45
2022-09-23T06:23:55.429Z,7.18
2022-09-23T06:26:23.467Z,4.53
2022-09-23T06:28:50.197Z,4.85
2022-09-23T06:31:17.308Z,6.30
2022-09-23T06:33:44.794Z,3.63
2022-09-23T06:36:11.932Z,3.47
2022-09-23T06:38:39.116Z,3.55
2022-09-23T06:41:05.392Z,3.55
2022-09-23T06:43:31.708Z,4.47
2022-09-23T06:46:02.174Z,3.63
2022-09-23T06:48:28.686Z,3.53
2022-09-23T06:50:59.740Z,3.50
2022-09-23T06:53:26.034Z,3.97
2022-09-23T06:56:02.671Z,2.58
2022-09-23T06:58:29.950Z,6.47
2022-09-23T07:01:00.921Z,4.43
2022-09-23T07:03:27.292Z,3.08
2022-09-23T07:05:57.095Z,4.22
2022-09-23T07:08:23.828Z,3.20
2022-09-23T07:10:56.167Z,4.90
2022-09-23T07:13:22.599Z,4.40
2022-09-23T07:15:59.601Z,2.85
2022-09-23T07:18:26.588Z,4.25
2022-09-23T07:20:53.253Z,5.18
2022-09-23T07:23:19.841Z,3.85
2022-09-23T07:25:51.554Z,4.90
2022-09-23T07:28:18.926Z,3.42
2022-09-23T07:30:58.004Z,3.72
2022-09-23T07:33:32.200Z,4.20
2022-09-23T07:35:59.123Z,4.05
2022-09-23T07:38:29.751Z,4.68
2022-09-23T07:41:00.281Z,3.78
2022-09-23T07:43:27.690Z,4.55
2022-09-23T07:45:54.500Z,5.65
2022-09-23T07:48:21.292Z,3.72
2022-09-23T07:50:47.567Z,3.95
2022-09-23T07:53:14.830Z,6.70
2022-09-23T07:55:41.102Z,4.32
2022-09-23T07:58:07.411Z,6.20
2022-09-23T08:00:33.690Z,5.38
2022-09-23T08:03:00.090Z,4.82
2022-09-23T08:05:26.454Z,5.97
2022-09-23T08:07:52.700Z,5.20
2022-09-23T08:10:20.747Z,5.57
2022-09-23T08:12:50.002Z,5.80
2022-09-23T08:15:19.321Z,6.95
2022-09-23T08:17:46.265Z,4.13
2022-09-23T08:20:32.493Z,6.32
2022-09-23T08:22:58.812Z,3.95
2022-09-23T08:25:25.533Z,3.60
2022-09-23T08:27:52.401Z,6.38
2022-09-23T08:30:18.718Z,6.60
2022-09-23T08:32:45.017Z,8.63
2022-09-23T08:35:11.286Z,8.40
2022-09-23T08:37:37.553Z,4.97
2022-09-23T08:40:04.093Z,6.95
2022-09-23T08:42:32.368Z,8.13
2022-09-23T08:45:00.186Z,6.32
2022-09-23T08:47:28.608Z,6.60
2022-09-23T08:50:13.757Z,7.85
2022-09-23T08:52:40.051Z,5.30
2022-09-23T08:55:10.071Z,4.82
2022-09-23T08:57:57.419Z,5.75
2022-09-23T09:00:35.479Z,9.70
2022-09-23T09:03:02.021Z,8.38
2022-09-23T09:05:31.154Z,5.90
2022-09-23T09:07:59.340Z,7.15
2022-09-23T09:10:28.209Z,5.82
2022-09-23T09:13:02.984Z,6.70
2022-09-23T09:15:29.331Z,5.05
2022-09-23T09:18:06.369Z,4.90
2022-09-23T09:20:39.411Z,5.68
2022-09-23T09:23:16.533Z,3.88
2022-09-23T09:25:42.766Z,4.97
2022-09-23T09:28:15.209Z,7.85
2022-09-23T09:30:45.151Z,7.90
2022-09-23T09:33:15.448Z,7.03
2022-09-23T09:35:41.705Z,4.82
2022-09-23T09:38:08.147Z,6.57
2022-09-23T09:40:35.093Z,5.68
2022-09-23T09:43:06.982Z,8.23
2022-09-23T09:45:33.793Z,9.88
2022-09-23T09:48:11.530Z,4.00
2022-09-23T09:50:45.675Z,7.78
2022-09-23T09:53:14.938Z,5.93
2022-09-23T09:55:41.462Z,6.90
2022-09-23T09:58:13.291Z,5.20
2022-09-23T10:00:44.188Z,7.35
2022-09-23T10:03:13.462Z,4.78
2022-09-23T10:05:46.143Z,8.02
2022-09-23T10:08:22.434Z,6.00
2022-09-23T10:10:55.605Z,6.75
2022-09-23T10:13:27.162Z,6.32
2022-09-23T10:15:54.921Z,4.75
2022-09-23T10:18:32.073Z,8.90
2022-09-23T10:21:06.545Z,7.43
2022-09-23T10:23:33.321Z,5.55
2022-09-23T10:26:05.324Z,4.72
2022-09-23T10:28:37.698Z,6.07
2022-09-23T10:31:05.684Z,5.30
2022-09-23T10:33:32.041Z,4.55
2022-09-23T10:35:58.504Z,6.45
2022-09-23T10:38:25.032Z,5.18
2022-09-23T10:41:11.148Z,7.78
2022-09-23T10:44:16.660Z,4.20
2022-09-23T10:47:12.996Z,4.85
2022-09-23T10:49:52.543Z,4.53
2022-09-23T10:52:18.775Z,6.60
2022-09-23T10:54:51.095Z,4.78
2022-09-23T10:57:40.721Z,6.28
2022-09-23T11:00:25.993Z,4.80
2022-09-23T11:02:58.353Z,4.88
2022-09-23T11:05:28.366Z,6.10
2022-09-23T11:07:57.557Z,4.78
2022-09-23T11:10:44.851Z,2.80
2022-09-23T11:13:26.513Z,4.60
2022-09-23T11:16:10.335Z,5.28
2022-09-23T11:18:39.740Z,4.80
2022-09-23T11:21:21.389Z,4.45
2022-09-23T11:24:02.507Z,5.13
2022-09-23T11:26:33.093Z,4.05
2022-09-23T11:29:21.513Z,4.80
2022-09-23T11:31:47.725Z,3.53
2022-09-23T11:34:34.068Z,3.75
2022-09-23T11:37:00.475Z,4.35
2022-09-23T11:39:32.823Z,3.50
2022-09-23T11:42:00.773Z,3.00
2022-09-23T11:44:33.534Z,4.35
2022-09-23T11:47:04.254Z,4.25
2022-09-23T11:49:32.572Z,5.45
2022-09-23T11:52:04.856Z,3.28
2022-09-23T11:54:39.688Z,3.15
2022-09-23T11:57:09.882Z,2.50
2022-09-23T11:59:42.944Z,2.85
2022-09-23T12:02:31.139Z,5.05
2022-09-23T12:05:02.803Z,5.45
2022-09-23T12:07:33.176Z,3.90
2022-09-23T12:10:00.206Z,3.92
2022-09-23T12:12:29.324Z,2.75
2022-09-23T12:15:03.021Z,2.60
2022-09-23T12:17:29.353Z,4.25
2022-09-23T12:20:01.646Z,3.60
2022-09-23T12:22:27.895Z,4.18
2022-09-23T12:24:56.842Z,3.95
2022-09-23T12:27:30.740Z,3.45
2022-09-23T12:30:01.990Z,5.53
2022-09-23T12:32:28.556Z,3.75
2022-09-23T12:34:55.422Z,3.70
2022-09-23T12:37:31.653Z,3.25
2022-09-23T12:40:09.281Z,1.88
2022-09-23T12:42:40.180Z,5.10
2022-09-23T12:45:17.252Z,3.67
2022-09-23T12:47:44.080Z,3.72
2022-09-23T12:50:29.177Z,4.00
2022-09-23T12:52:57.417Z,4.50
2022-09-23T12:55:23.685Z,4.72
2022-09-23T12:57:49.988Z,3.42
2022-09-23T13:00:27.441Z,4.43
2022-09-23T13:03:18.026Z,4.55
2022-09-23T13:06:07.346Z,4.60
2022-09-23T13:08:36.764Z,6.85
2022-09-23T13:11:04.955Z,6.85
2022-09-23T13:13:39.162Z,5.20
2022-09-23T13:16:11.766Z,3.95
2022-09-23T13:18:50.320Z,4.30
2022-09-23T13:21:18.731Z,2.30
2022-09-23T13:24:03.888Z,4.78
2022-09-23T13:26:32.190Z,6.00
2022-09-23T13:28:58.553Z,3.38
2022-09-23T13:31:24.892Z,4.00
2022-09-23T13:34:04.129Z,4.28
2022-09-23T13:36:30.441Z,3.15
2022-09-23T13:39:16.469Z,4.05
2022-09-23T13:41:44.500Z,2.30
2022-09-23T13:44:21.307Z,2.63
2022-09-23T13:46:51.543Z,3.00
2022-09-23T13:49:22.230Z,2.83
2022-09-23T13:51:48.493Z,3.53
2022-09-23T13:54:28.714Z,2.50
2022-09-23T13:56:56.434Z,2.38
2022-09-23T13:59:37.157Z,3.90
2022-09-23T14:02:11.044Z,2.70
2022-09-23T14:04:37.400Z,3.25
2022-09-23T14:07:04.255Z,3.67
2022-09-23T14:09:31.345Z,4.32
2022-09-23T14:11:59.537Z,4.78
2022-09-23T14:14:26.884Z,4.30
2022-09-23T14:16:53.557Z,3.63
2022-09-23T14:19:21.745Z,4.22
2022-09-23T14:21:54.969Z,2.75
2022-09-23T14:24:24.002Z,4.43
2022-09-23T14:26:53.050Z,2.80
2022-09-23T14:29:20.744Z,4.35
2022-09-23T14:31:56.968Z,3.25
2022-09-23T14:34:48.289Z,6.13
2022-09-23T14:37:36.821Z,5.88
2022-09-23T14:40:22.608Z,3.20
2022-09-23T14:42:52.049Z,3.20
2022-09-23T14:45:20.455Z,4.85
2022-09-23T14:47:51.692Z,4.00
2022-09-23T14:50:43.609Z,4.63
2022-09-23T14:53:19.356Z,4.63
2022-09-23T14:55:48.738Z,7.00
2022-09-23T14:58:16.540Z,4.28
2022-09-23T15:00:56.096Z,4.88
2022-09-23T15:03:22.987Z,4.25
2022-09-23T15:05:51.155Z,3.40
2022-09-23T15:08:19.970Z,4.60
2022-09-23T15:10:46.855Z,3.80
2022-09-23T15:13:32.873Z,4.93
2022-09-23T15:16:01.958Z,3.50
2022-09-23T15:18:30.336Z,5.03
2022-09-23T15:21:08.226Z,4.47
2022-09-23T15:23:40.899Z,7.13
2022-09-23T15:26:09.847Z,4.53
2022-09-23T15:28:36.109Z,6.05
2022-09-23T15:31:03.303Z,6.10
2022-09-23T15:33:29.869Z,5.13
2022-09-23T15:35:56.259Z,7.22
2022-09-23T15:38:22.628Z,3.97
2022-09-23T15:40:49.226Z,3.83
2022-09-23T15:43:21.471Z,4.63
2022-09-23T15:45:53.226Z,4.28
2022-09-23T15:48:22.589Z,5.18
2022-09-23T15:50:53.291Z,5.70
2022-09-23T15:53:24.446Z,5.53
2022-09-23T15:55:51.560Z,4.15
2022-09-23T15:58:18.411Z,5.18
2022-09-23T16:00:45.026Z,4.15
2022-09-23T16:03:13.896Z,5.03
2022-09-23T16:05:43.065Z,4.68
2022-09-23T16:08:09.970Z,5.57
2022-09-23T16:10:36.903Z,4.00
2022-09-23T16:13:04.717Z,7.75
2022-09-23T16:15:31.724Z,6.13
2022-09-23T16:18:01.000Z,5.63
2022-09-23T16:20:29.618Z,3.83
2022-09-23T16:22:55.861Z,5.05
2022-09-23T16:25:25.247Z,2.95
2022-09-23T16:27:52.715Z,4.82
2022-09-23T16:30:19.056Z,7.53
2022-09-23T16:32:45.327Z,5.93
2022-09-23T16:35:11.871Z,4.93
2022-09-23T16:37:38.438Z,4.70
2022-09-23T16:40:05.071Z,6.80
2022-09-23T16:42:31.405Z,6.05
2022-09-23T16:44:59.012Z,5.43
2022-09-23T16:47:25.314Z,5.43
2022-09-23T16:49:51.557Z,6.85
2022-09-23T16:52:17.841Z,8.13
2022-09-23T16:54:45.107Z,4.72
2022-09-23T16:57:13.084Z,5.93
2022-09-23T16:59:57.857Z,4.45
2022-09-23T17:02:42.708Z,4.72
2022-09-23T17:05:10.669Z,6.00
2022-09-23T17:07:37.270Z,6.07
2022-09-23T17:10:03.706Z,6.78
2022-09-23T17:12:32.416Z,5.88
2022-09-23T17:14:59.140Z,7.35
2022-09-23T17:17:25.771Z,5.90
2022-09-23T17:19:52.019Z,3.55
2022-09-23T17:22:18.315Z,8.25
2022-09-23T17:24:44.608Z,7.85
2022-09-23T17:27:10.963Z,7.60
2022-09-23T17:29:37.478Z,7.13
2022-09-23T17:32:04.920Z,5.88
2022-09-23T17:34:33.291Z,7.43
2022-09-23T17:37:00.288Z,9.82
2022-09-23T17:39:26.610Z,8.00
2022-09-23T17:41:55.428Z,7.97
2022-09-23T17:44:23.021Z,5.82
2022-09-23T17:46:49.270Z,10.77
2022-09-23T17:49:15.641Z,9.32
2022-09-23T17:51:42.155Z,9.23
2022-09-23T17:54:08.776Z,9.88
2022-09-23T17:56:35.040Z,12.43
2022-09-23T17:59:01.940Z,6.90
2022-09-23T18:01:28.702Z,15.23
2022-09-23T18:03:55.801Z,10.93
2022-09-23T18:06:22.963Z,12.88
2022-09-23T18:08:50.178Z,12.25
2022-09-23T18:11:20.812Z,11.50
2022-09-23T18:13:57.093Z,13.18
2022-09-23T18:16:27.670Z,10.98
2022-09-23T18:18:55.686Z,12.57
2022-09-23T18:21:22.934Z,9.77
2022-09-23T18:23:49.506Z,9.48
2022-09-23T18:26:16.660Z,13.85
2022-09-23T18:28:43.583Z,9.75
2022-09-23T18:31:10.261Z,9.55
2022-09-23T18:33:36.816Z,10.95
2022-09-23T18:36:04.402Z,11.35
2022-09-23T18:38:30.861Z,8.80
2022-09-23T18:40:57.950Z,10.63
2022-09-23T18:43:35.884Z,10.43
2022-09-23T18:46:07.466Z,11.90
2022-09-23T18:48:52.996Z,11.55
2022-09-23T18:51:20.872Z,8.93
2022-09-23T18:53:47.906Z,13.27
2022-09-23T18:56:15.432Z,9.40
2022-09-23T18:58:45.503Z,10.43
2022-09-23T19:01:15.070Z,10.30
2022-09-23T19:03:41.432Z,9.75
2022-09-23T19:06:09.445Z,11.10
2022-09-23T19:08:36.300Z,10.60
2022-09-23T19:11:03.649Z,7.63
2022-09-23T19:13:30.504Z,11.32
2022-09-23T19:16:01.392Z,8.73
2022-09-23T19:18:28.752Z,10.45
2022-09-23T19:20:55.057Z,10.30
2022-09-23T19:23:21.330Z,8.40
2022-09-23T19:25:47.770Z,10.63
2022-09-23T19:28:14.352Z,10.15
2022-09-23T19:30:40.680Z,9.30
2022-09-23T19:33:08.950Z,9.00
2022-09-23T19:35:36.239Z,9.30
2022-09-23T19:38:02.711Z,7.75
2022-09-23T19:40:29.619Z,11.18
2022-09-23T19:42:55.884Z,7.95
2022-09-23T19:45:22.533Z,8.23
2022-09-23T19:47:58.158Z,7.60
2022-09-23T19:50:24.474Z,10.65
2022-09-23T19:52:51.626Z,7.30
2022-09-23T19:55:19.829Z,8.73
2022-09-23T19:57:46.788Z,6.65
2022-09-23T20:00:15.220Z,8.32
2022-09-23T20:02:42.198Z,9.20
2022-09-23T20:05:11.877Z,6.78
2022-09-23T20:07:39.349Z,7.15
2022-09-23T20:10:06.020Z,8.27
2022-09-23T20:12:33.099Z,7.68
2022-09-23T20:15:02.284Z,8.43
2022-09-23T20:17:30.423Z,8.15
2022-09-23T20:19:56.973Z,7.45
2022-09-23T20:22:32.976Z,9.20
2022-09-23T20:27:26.571Z,7.43
2022-09-23T20:29:52.846Z,5.60
2022-09-23T20:32:19.443Z,8.35
2022-09-23T20:34:49.688Z,6.07
2022-09-23T20:37:20.225Z,7.70
2022-09-23T20:39:47.178Z,7.65
2022-09-23T20:42:14.012Z,7.85
2022-09-23T20:44:40.437Z,9.88
2022-09-23T20:47:07.183Z,7.55
2022-09-23T20:49:34.304Z,8.45
2022-09-23T20:52:03.961Z,8.25
2022-09-23T20:54:31.355Z,9.55
2022-09-23T20:56:58.577Z,8.20
2022-09-23T20:59:27.136Z,8.73
2022-09-23T21:02:00.656Z,7.38
2022-09-23T21:04:27.548Z,8.13
2022-09-23T21:06:54.186Z,6.30
2022-09-23T21:09:20.695Z,9.38
2022-09-23T21:11:46.927Z,8.18
2022-09-23T21:14:13.244Z,6.13
2022-09-23T21:16:39.632Z,7.10
2022-09-23T21:19:08.949Z,6.63
2022-09-23T21:21:35.444Z,6.18
2022-09-23T21:24:24.535Z,7.05
2022-09-23T21:26:50.145Z,6.40
2022-09-23T21:29:16.898Z,8.80
2022-09-23T21:31:43.210Z,5.82
2022-09-23T21:34:11.169Z,7.68
2022-09-23T21:36:38.278Z,9.30
2022-09-23T21:39:09.058Z,8.40
2022-09-23T21:41:35.628Z,7.70
2022-09-23T21:44:02.894Z,6.78
2022-09-23T21:46:29.303Z,7.60
2022-09-23T21:48:57.284Z,7.95
2022-09-23T21:51:25.326Z,7.18
2022-09-23T21:53:52.497Z,7.15
2022-09-23T21:56:21.175Z,7.82
2022-09-23T21:58:47.719Z,7.40
2022-09-23T22:01:16.799Z,7.47
2022-09-23T22:03:43.454Z,8.68
2022-09-23T22:06:11.425Z,7.43
2022-09-23T22:08:38.904Z,8.45
2022-09-23T22:11:29.655Z,8.43
2022-09-23T22:13:56.546Z,7.63
2022-09-23T22:16:23.216Z,7.30
2022-09-23T22:18:55.109Z,7.00
2022-09-23T22:21:22.126Z,7.20
2022-09-23T22:23:48.773Z,7.97
2022-09-23T22:26:15.008Z,6.50
2022-09-23T22:28:59.944Z,8.38
2022-09-23T22:31:44.892Z,6.53
2022-09-23T22:34:31.057Z,7.78
2022-09-23T22:36:59.575Z,7.88
2022-09-23T22:39:26.770Z,7.65
2022-09-23T22:42:01.113Z,8.07
2022-09-23T22:44:29.323Z,7.38
2022-09-23T22:46:57.327Z,7.85
2022-09-23T22:49:24.008Z,6.70
2022-09-23T22:51:53.501Z,7.47
2022-09-23T22:54:20.851Z,7.72
2022-09-23T22:56:47.117Z,8.43
2022-09-23T22:59:13.488Z,6.70
2022-09-23T23:01:39.970Z,8.27
2022-09-23T23:04:08.120Z,7.40
2022-09-23T23:06:35.910Z,6.88
2022-09-23T23:09:09.614Z,7.20
2022-09-23T23:11:35.976Z,7.72
2022-09-23T23:14:02.801Z,8.40
2022-09-23T23:16:33.373Z,8.65
2022-09-23T23:18:59.846Z,7.20
2022-09-23T23:21:26.122Z,10.38
2022-09-23T23:23:52.733Z,7.25
2022-09-23T23:26:20.950Z,6.97
2022-09-23T23:28:48.260Z,6.00
2022-09-23T23:31:16.246Z,7.95
2022-09-23T23:33:42.951Z,8.10
2022-09-23T23:36:09.828Z,7.88
2022-09-23T23:38:38.046Z,7.70
2022-09-23T23:41:05.051Z,8.10
2022-09-23T23:43:31.834Z,7.13
2022-09-23T23:46:00.162Z,6.03
2022-09-23T23:48:27.647Z,5.95
2022-09-23T23:50:58.158Z,7.10
2022-09-23T23:53:25.630Z,7.28
2022-09-23T23:55:52.228Z,8.57
2022-09-23T23:58:18.856Z,6.93
